< < Back
Terminal Aerodrome Forecast


Current Version              Previous Versions:   1  2  3  4  5  6  7  8  9  

Terminal Aerodrome Forecast

517
FTAK31 PAJN 301100
TAFAHN
TAF
PAHN 301138Z 3012/3112 30012KT P6SM VCSH SCT015 OVC060
     FM301400 30012KT P6SM -RA BKN025 OVC040
     FM310200 10010KT 5SM BR VCSH BKN015 OVC025
      AMD LTD TO CLD VIS AND WIND=

Latest METAR

046
SAUS70 KWBC 301300
MTRAHN
METAR KAHN 301251Z 33003KT 10SM CLR 08/05 A3008 RMK AO2 SLP185
T00780050


USA.gov is the U.S. government's official web portal to all federal, state and local government web resources and services.